createdAt,value
2023-04-26T00:01:27.565Z,100171.66
2023-04-26T00:04:00.835Z,100169.92
2023-04-26T00:06:33.598Z,100171.25
2023-04-26T00:09:06.818Z,100160.16
2023-04-26T00:11:39.406Z,100167.30
2023-04-26T00:14:11.893Z,100168.77
2023-04-26T00:16:44.242Z,100169.14
2023-04-26T00:19:17.962Z,100174.58
2023-04-26T00:21:50.644Z,100175.61
2023-04-26T00:24:22.910Z,100179.73
2023-04-26T00:26:57.510Z,100176.44
2023-04-26T00:29:29.899Z,100177.98
2023-04-26T00:32:02.351Z,100177.32
2023-04-26T00:34:39.914Z,100181.55
2023-04-26T00:37:12.511Z,100184.17
2023-04-26T00:39:44.938Z,100181.20
2023-04-26T00:42:17.552Z,100181.71
2023-04-26T00:44:51.425Z,100183.46
2023-04-26T00:47:24.103Z,100184.14
2023-04-26T00:49:56.763Z,100185.14
2023-04-26T00:52:29.100Z,100188.40
2023-04-26T00:55:02.512Z,100179.01
2023-04-26T00:57:35.679Z,100194.39
2023-04-26T01:00:10.525Z,100195.36
2023-04-26T01:02:43.609Z,100195.73
2023-04-26T01:05:16.655Z,100196.71
2023-04-26T01:07:51.128Z,100204.81
2023-04-26T01:10:24.217Z,100199.66
2023-04-26T01:12:57.946Z,100204.84
2023-04-26T01:15:33.511Z,100202.05
2023-04-26T01:18:06.104Z,100193.96
2023-04-26T01:20:40.009Z,100202.76
2023-04-26T01:23:13.023Z,100203.49
2023-04-26T01:25:45.901Z,100202.83
2023-04-26T01:28:18.646Z,100198.78
2023-04-26T01:30:51.742Z,100195.73
2023-04-26T01:33:24.092Z,100197.38
2023-04-26T01:35:57.879Z,100200.09
2023-04-26T01:38:30.119Z,100198.97
2023-04-26T01:41:02.374Z,100201.89
2023-04-26T01:43:35.575Z,100206.06
2023-04-26T01:46:08.592Z,100205.63
2023-04-26T01:48:41.370Z,100205.73
2023-04-26T01:51:13.957Z,100205.88
2023-04-26T01:53:46.185Z,100207.66
2023-04-26T01:56:18.623Z,100212.38
2023-04-26T01:58:51.535Z,100210.39
2023-04-26T02:01:24.284Z,100211.34
2023-04-26T02:03:56.543Z,100204.05
2023-04-26T02:06:29.073Z,100204.04
2023-04-26T02:09:01.756Z,100214.16
2023-04-26T02:11:34.509Z,100212.08
2023-04-26T02:14:06.975Z,100206.45
2023-04-26T02:16:40.548Z,100210.75
2023-04-26T02:19:13.674Z,100216.50
2023-04-26T02:21:58.110Z,100216.05
2023-04-26T02:24:31.820Z,100218.75
2023-04-26T02:27:05.685Z,100214.92
2023-04-26T02:29:44.140Z,100210.30
2023-04-26T02:42:35.041Z,100210.80
2023-04-26T02:45:09.533Z,100207.39
2023-04-26T02:47:42.780Z,100210.65
2023-04-26T02:50:16.053Z,100212.42
2023-04-26T02:52:48.979Z,100215.31
2023-04-26T02:55:22.256Z,100210.41
2023-04-26T02:57:54.449Z,100198.86
2023-04-26T03:00:27.965Z,100212.77
2023-04-26T03:03:00.349Z,100219.56
2023-04-26T03:05:32.900Z,100218.35
2023-04-26T03:08:07.321Z,100196.47
2023-04-26T03:10:39.668Z,100221.90
2023-04-26T03:13:12.085Z,100218.98
2023-04-26T03:15:50.048Z,100225.08
2023-04-26T03:18:22.742Z,100222.94
2023-04-26T03:20:55.519Z,100223.38
2023-04-26T03:23:28.774Z,100221.48
2023-04-26T03:26:01.849Z,100222.77
2023-04-26T03:28:34.668Z,100230.77
2023-04-26T03:31:07.693Z,100229.63
2023-04-26T03:33:40.128Z,100228.17
2023-04-26T03:36:12.914Z,100231.42
2023-04-26T03:38:45.070Z,100240.56
2023-04-26T03:41:18.451Z,100234.14
2023-04-26T03:43:51.122Z,100241.98
2023-04-26T03:46:24.156Z,100239.57
2023-04-26T03:48:57.281Z,100240.89
2023-04-26T03:51:31.548Z,100234.17
2023-04-26T03:54:04.040Z,100246.32
2023-04-26T03:56:36.776Z,100243.59
2023-04-26T03:59:10.360Z,100240.71
2023-04-26T04:01:42.985Z,100251.66
2023-04-26T04:04:15.500Z,100252.91
2023-04-26T04:06:49.396Z,100254.46
2023-04-26T04:09:21.880Z,100256.12
2023-04-26T04:11:55.054Z,100255.32
2023-04-26T04:14:27.402Z,100256.31
2023-04-26T04:17:01.431Z,100264.40
2023-04-26T04:19:35.280Z,100263.30
2023-04-26T04:22:07.733Z,100262.84
2023-04-26T04:24:41.103Z,100267.33
2023-04-26T04:27:14.170Z,100269.33
2023-04-26T04:29:47.955Z,100272.17
2023-04-26T04:32:20.862Z,100277.64
2023-04-26T04:34:53.989Z,100278.08
2023-04-26T04:37:27.135Z,100283.39
2023-04-26T04:39:59.794Z,100285.08
2023-04-26T04:42:32.465Z,100291.52
2023-04-26T04:45:07.536Z,100290.19
2023-04-26T04:47:42.193Z,100289.18
2023-04-26T04:50:16.200Z,100289.42
2023-04-26T04:52:50.054Z,100293.66
2023-04-26T04:55:22.858Z,100278.64
2023-04-26T04:57:55.336Z,100292.65
2023-04-26T05:00:28.919Z,100300.17
2023-04-26T05:03:10.234Z,100298.45
2023-04-26T05:05:42.923Z,100283.77
2023-04-26T05:08:15.571Z,100302.28
2023-04-26T05:10:48.910Z,100305.34
2023-04-26T05:13:21.753Z,100304.13
2023-04-26T05:15:54.255Z,100293.21
2023-04-26T05:18:27.189Z,100307.85
2023-04-26T05:21:00.201Z,100311.77
2023-04-26T05:23:34.715Z,100316.31
2023-04-26T05:26:09.027Z,100319.75
2023-04-26T05:28:57.678Z,100318.11
2023-04-26T05:31:36.894Z,100324.35
2023-04-26T05:34:27.969Z,100316.91
2023-04-26T05:37:03.622Z,100328.27
2023-04-26T05:39:36.203Z,100325.53
2023-04-26T05:42:08.838Z,100330.86
2023-04-26T05:44:41.629Z,100330.02
2023-04-26T05:47:14.812Z,100315.55
2023-04-26T05:49:47.869Z,100335.61
2023-04-26T05:52:20.695Z,100333.93
2023-04-26T05:54:53.572Z,100337.54
2023-04-26T05:57:26.294Z,100336.89
2023-04-26T05:59:59.579Z,100329.20
2023-04-26T06:02:32.348Z,100334.60
2023-04-26T06:05:06.675Z,100341.92
2023-04-26T06:07:39.622Z,100336.92
2023-04-26T06:10:13.612Z,100342.69
2023-04-26T06:12:46.924Z,100344.05
2023-04-26T06:15:19.877Z,100338.45
2023-04-26T06:17:52.484Z,100338.58
2023-04-26T06:20:25.378Z,100341.45
2023-04-26T06:22:58.417Z,100327.02
2023-04-26T06:25:30.992Z,100341.38
2023-04-26T06:28:04.073Z,100346.94
2023-04-26T06:30:37.131Z,100347.16
2023-04-26T06:33:10.157Z,100347.02
2023-04-26T06:35:42.948Z,100342.39
2023-04-26T06:38:16.553Z,100349.91
2023-04-26T06:40:49.211Z,100345.42
2023-04-26T06:43:21.966Z,100345.93
2023-04-26T06:46:03.127Z,100352.30
2023-04-26T06:48:35.736Z,100351.90
2023-04-26T06:51:11.074Z,100358.26
2023-04-26T06:53:42.596Z,100353.73
2023-04-26T06:56:15.382Z,100361.48
2023-04-26T06:59:01.642Z,100360.27
2023-04-26T07:01:35.294Z,100359.02
2023-04-26T07:04:10.792Z,100361.78
2023-04-26T07:06:44.013Z,100366.70
2023-04-26T07:09:17.008Z,100366.96
2023-04-26T07:11:50.571Z,100370.27
2023-04-26T07:14:23.367Z,100369.91
2023-04-26T07:16:56.066Z,100372.12
2023-04-26T07:19:28.298Z,100358.80
2023-04-26T07:22:01.490Z,100362.32
2023-04-26T07:24:34.143Z,100370.45
2023-04-26T07:27:06.927Z,100374.16
2023-04-26T07:29:39.774Z,100361.25
2023-04-26T07:32:12.179Z,100362.86
2023-04-26T07:34:44.767Z,100379.35
2023-04-26T07:37:17.587Z,100372.87
2023-04-26T07:39:50.155Z,100376.45
2023-04-26T07:42:22.720Z,100379.89
2023-04-26T07:44:55.310Z,100386.33
2023-04-26T07:47:27.833Z,100390.83
2023-04-26T07:49:59.867Z,100393.05
2023-04-26T07:52:32.521Z,100385.77
2023-04-26T07:55:05.583Z,100393.22
2023-04-26T07:57:37.973Z,100392.29
2023-04-26T08:00:13.128Z,100376.77
2023-04-26T08:02:46.839Z,100389.56
2023-04-26T08:05:20.231Z,100393.12
2023-04-26T08:07:52.909Z,100402.91
2023-04-26T08:10:25.393Z,100386.30
2023-04-26T08:12:57.690Z,100404.46
2023-04-26T08:15:30.273Z,100401.75
2023-04-26T08:18:03.025Z,100401.83
2023-04-26T08:20:35.527Z,100396.20
2023-04-26T08:23:08.332Z,100391.86
2023-04-26T08:25:41.153Z,100401.58
2023-04-26T08:28:14.673Z,100404.29
2023-04-26T08:30:47.319Z,100404.27
2023-04-26T08:33:20.903Z,100379.56
2023-04-26T08:35:52.938Z,100401.94
2023-04-26T08:38:25.594Z,100402.59
2023-04-26T08:41:01.966Z,100396.75
2023-04-26T08:43:37.991Z,100404.58
2023-04-26T08:46:16.857Z,100401.09
2023-04-26T08:48:56.291Z,100405.45
2023-04-26T08:51:29.937Z,100402.52
2023-04-26T08:54:04.728Z,100404.84
2023-04-26T08:56:39.406Z,100412.19
2023-04-26T08:59:13.264Z,100408.66
2023-04-26T09:01:47.118Z,100415.98
2023-04-26T09:04:20.433Z,100399.66
2023-04-26T09:06:54.788Z,100411.98
2023-04-26T09:09:29.688Z,100413.92
2023-04-26T09:12:03.504Z,100415.45
2023-04-26T09:14:36.294Z,100408.60
2023-04-26T09:17:25.679Z,100411.92
2023-04-26T09:19:58.439Z,100408.66
2023-04-26T09:22:35.942Z,100417.31
2023-04-26T09:25:10.061Z,100413.45
2023-04-26T09:27:45.010Z,100420.48
2023-04-26T09:30:20.952Z,100416.64
2023-04-26T09:32:55.937Z,100416.27
2023-04-26T09:35:33.122Z,100415.28
2023-04-26T09:38:12.210Z,100421.71
2023-04-26T09:40:47.692Z,100417.58
2023-04-26T09:43:21.885Z,100420.36
2023-04-26T09:45:56.303Z,100418.80
2023-04-26T09:48:30.973Z,100416.39
2023-04-26T09:51:12.245Z,100419.24
2023-04-26T09:53:50.266Z,100425.23
2023-04-26T09:56:23.727Z,100425.11
2023-04-26T09:59:01.585Z,100434.70
2023-04-26T10:01:35.149Z,100412.94
2023-04-26T10:04:09.959Z,100434.67
2023-04-26T10:06:42.195Z,100433.97
2023-04-26T10:09:16.042Z,100426.48
2023-04-26T10:11:48.700Z,100432.59
2023-04-26T10:14:21.786Z,100430.09
2023-04-26T10:16:55.983Z,100427.23
2023-04-26T10:19:28.486Z,100424.16
2023-04-26T10:22:05.344Z,100423.45
2023-04-26T10:24:39.399Z,100430.15
2023-04-26T10:27:11.975Z,100433.69
2023-04-26T10:30:10.422Z,100429.45
2023-04-26T10:33:22.318Z,100433.54
2023-04-26T10:36:09.486Z,100430.15
2023-04-26T10:38:43.621Z,100434.11
2023-04-26T10:41:36.629Z,100440.17
2023-04-26T10:44:45.121Z,100431.88
2023-04-26T10:47:29.447Z,100431.85
2023-04-26T10:50:10.696Z,100428.55
2023-04-26T10:53:09.141Z,100449.28
2023-04-26T10:55:44.894Z,100437.29
2023-04-26T10:58:42.264Z,100435.32
2023-04-26T11:01:21.356Z,100444.39
2023-04-26T11:04:11.654Z,100439.29
2023-04-26T11:06:55.705Z,100443.86
2023-04-26T11:09:39.507Z,100434.75
2023-04-26T11:12:14.358Z,100441.81
2023-04-26T11:14:46.133Z,100453.40
2023-04-26T11:17:20.052Z,100452.80
2023-04-26T11:19:52.432Z,100452.62
2023-04-26T11:22:26.194Z,100435.13
2023-04-26T11:25:01.337Z,100449.56
2023-04-26T11:27:33.749Z,100443.05
2023-04-26T11:30:08.955Z,100444.13
2023-04-26T11:32:41.504Z,100446.30
2023-04-26T11:35:14.146Z,100451.30
2023-04-26T11:37:49.504Z,100451.02
2023-04-26T11:40:22.466Z,100456.98
2023-04-26T11:42:54.844Z,100459.91
2023-04-26T11:45:27.650Z,100458.02
2023-04-26T11:48:01.370Z,100459.14
2023-04-26T11:50:34.721Z,100468.23
2023-04-26T11:53:09.072Z,100473.86
2023-04-26T11:55:42.532Z,100466.34
2023-04-26T11:58:16.210Z,100459.79
2023-04-26T12:01:02.972Z,100461.13
2023-04-26T12:03:38.188Z,100462.67
2023-04-26T12:06:10.885Z,100463.72
2023-04-26T12:08:43.697Z,100448.63
2023-04-26T12:11:20.045Z,100462.17
2023-04-26T12:13:52.228Z,100469.15
2023-04-26T12:16:27.067Z,100467.09
2023-04-26T12:18:59.872Z,100468.93
2023-04-26T12:21:41.255Z,100467.09
2023-04-26T12:24:29.904Z,100462.03
2023-04-26T12:27:02.987Z,100464.11
2023-04-26T12:29:36.297Z,100465.84
2023-04-26T12:32:09.289Z,100447.19
2023-04-26T12:34:42.430Z,100470.52
2023-04-26T12:37:15.558Z,100471.80
2023-04-26T12:39:48.299Z,100471.73
2023-04-26T12:42:21.154Z,100472.65
2023-04-26T12:44:53.693Z,100469.55
2023-04-26T12:47:26.683Z,100467.38
2023-04-26T12:50:01.219Z,100460.98
2023-04-26T12:52:34.041Z,100467.38
2023-04-26T12:55:07.366Z,100485.73
2023-04-26T12:57:41.957Z,100474.73
2023-04-26T13:00:17.640Z,100478.98
2023-04-26T13:02:50.246Z,100474.08
2023-04-26T13:05:24.750Z,100475.73
2023-04-26T13:07:57.434Z,100477.30
2023-04-26T13:10:30.081Z,100480.08
2023-04-26T13:13:03.011Z,100479.05
2023-04-26T13:15:35.507Z,100490.56
2023-04-26T13:18:08.205Z,100486.86
2023-04-26T13:20:40.482Z,100491.18
2023-04-26T13:23:12.872Z,100486.65
2023-04-26T13:25:46.007Z,100494.40
2023-04-26T13:28:18.671Z,100498.66
2023-04-26T13:30:52.549Z,100497.19
2023-04-26T13:33:25.730Z,100498.94
2023-04-26T13:35:58.830Z,100503.05
2023-04-26T13:38:32.847Z,100504.33
2023-04-26T13:41:05.618Z,100503.15
2023-04-26T13:43:38.241Z,100508.54
2023-04-26T13:46:10.932Z,100515.34
2023-04-26T13:48:44.662Z,100501.39
2023-04-26T13:51:17.382Z,100504.05
2023-04-26T13:53:50.066Z,100499.88
2023-04-26T13:56:24.004Z,100501.94
2023-04-26T13:59:00.177Z,100491.41
2023-04-26T14:01:34.583Z,100496.49
2023-04-26T14:04:11.015Z,100500.95
2023-04-26T14:06:44.296Z,100498.48
2023-04-26T14:09:17.527Z,100484.27
2023-04-26T14:12:06.469Z,100501.16
2023-04-26T14:14:41.064Z,100503.84
2023-04-26T14:17:14.188Z,100499.31
2023-04-26T14:19:46.893Z,100508.58
2023-04-26T14:22:19.871Z,100510.77
2023-04-26T14:24:52.372Z,100517.98
2023-04-26T14:27:24.773Z,100518.39
2023-04-26T14:29:57.291Z,100518.71
2023-04-26T14:32:30.279Z,100507.74
2023-04-26T14:35:02.961Z,100517.69
2023-04-26T14:37:35.834Z,100518.34
2023-04-26T14:40:11.066Z,100527.79
2023-04-26T14:42:46.114Z,100526.58
2023-04-26T14:45:19.724Z,100527.30
2023-04-26T14:47:52.173Z,100525.58
2023-04-26T14:50:25.177Z,100527.69
2023-04-26T14:52:57.779Z,100520.12
2023-04-26T14:55:30.781Z,100529.23
2023-04-26T14:58:03.561Z,100533.60
2023-04-26T15:00:36.287Z,100531.36
2023-04-26T15:03:09.069Z,100476.89
2023-04-26T15:05:41.679Z,100534.93
2023-04-26T15:08:14.858Z,100537.23
2023-04-26T15:10:47.581Z,100533.10
2023-04-26T15:13:20.051Z,100542.85
2023-04-26T15:15:52.998Z,100537.44
2023-04-26T15:18:25.532Z,100541.17
2023-04-26T15:20:58.125Z,100538.77
2023-04-26T15:23:30.474Z,100546.31
2023-04-26T15:26:06.311Z,100543.85
2023-04-26T15:28:38.679Z,100547.89
2023-04-26T15:31:12.879Z,100545.39
2023-04-26T15:33:45.340Z,100547.88
2023-04-26T15:36:19.912Z,100547.50
2023-04-26T15:38:51.312Z,100548.27
2023-04-26T15:41:24.407Z,100548.16
2023-04-26T15:43:57.656Z,100549.02
2023-04-26T15:46:30.173Z,100546.23
2023-04-26T15:49:03.792Z,100546.92
2023-04-26T15:51:36.368Z,100542.98
2023-04-26T15:54:09.332Z,100548.71
2023-04-26T15:56:41.776Z,100542.83
2023-04-26T15:59:14.259Z,100545.73
2023-04-26T16:01:46.907Z,100542.80
2023-04-26T16:04:19.906Z,100548.49
2023-04-26T16:06:52.600Z,100548.20
2023-04-26T16:09:26.106Z,100555.13
2023-04-26T16:11:58.773Z,100557.19
2023-04-26T16:14:31.691Z,100564.47
2023-04-26T16:17:05.202Z,100540.34
2023-04-26T16:19:38.506Z,100557.63
2023-04-26T16:22:10.997Z,100593.55
2023-04-26T16:24:43.364Z,100606.99
2023-04-26T16:27:15.686Z,100587.59
2023-04-26T16:29:48.654Z,100590.14
2023-04-26T16:32:22.163Z,100591.92
2023-04-26T16:34:54.840Z,100594.00
2023-04-26T16:37:27.688Z,100592.55
2023-04-26T16:40:00.627Z,100593.63
2023-04-26T16:42:34.384Z,100590.88
2023-04-26T16:45:07.912Z,100591.22
2023-04-26T16:47:41.467Z,100593.40
2023-04-26T16:50:14.727Z,100594.16
2023-04-26T16:52:47.587Z,100588.43
2023-04-26T16:55:20.492Z,100585.65
2023-04-26T16:57:53.258Z,100586.17
2023-04-26T17:00:26.618Z,100588.09
2023-04-26T17:02:58.987Z,100586.18
2023-04-26T17:05:31.391Z,100590.88
2023-04-26T17:08:04.076Z,100590.47
2023-04-26T17:10:38.341Z,100591.69
2023-04-26T17:13:12.716Z,100592.93
2023-04-26T17:15:46.237Z,100594.61
2023-04-26T17:18:18.844Z,100597.48
2023-04-26T17:20:53.936Z,100594.27
2023-04-26T17:23:28.831Z,100587.21
2023-04-26T17:26:01.893Z,100604.12
2023-04-26T17:28:34.859Z,100593.19
2023-04-26T17:31:07.593Z,100608.08
2023-04-26T17:33:40.554Z,100601.12
2023-04-26T17:36:13.014Z,100610.44
2023-04-26T17:38:46.259Z,100613.31
2023-04-26T17:41:19.113Z,100619.37
2023-04-26T17:43:51.878Z,100621.77
2023-04-26T17:46:24.498Z,100621.47
2023-04-26T17:48:57.298Z,100619.22
2023-04-26T17:51:30.132Z,100625.06
2023-04-26T17:54:02.741Z,100621.64
2023-04-26T17:56:35.411Z,100626.23
2023-04-26T17:59:08.216Z,100623.05
2023-04-26T18:01:40.801Z,100629.23
2023-04-26T18:04:14.206Z,100631.27
2023-04-26T18:06:47.506Z,100631.81
2023-04-26T18:09:21.355Z,100634.55
2023-04-26T18:11:54.359Z,100630.75
2023-04-26T18:14:26.881Z,100635.69
2023-04-26T18:16:59.790Z,100635.96
2023-04-26T18:19:32.652Z,100620.98
2023-04-26T18:22:05.198Z,100636.73
2023-04-26T18:24:38.207Z,100638.69
2023-04-26T18:27:14.088Z,100640.58
2023-04-26T18:29:47.923Z,100643.19
2023-04-26T18:32:20.681Z,100641.58
2023-04-26T18:34:53.299Z,100643.42
2023-04-26T18:37:26.068Z,100639.45
2023-04-26T18:39:59.025Z,100651.14
2023-04-26T18:42:32.024Z,100650.05
2023-04-26T18:45:05.120Z,100654.30
2023-04-26T18:47:38.046Z,100657.08
2023-04-26T18:50:11.859Z,100660.08
2023-04-26T18:52:45.017Z,100662.98
2023-04-26T18:55:17.945Z,100672.27
2023-04-26T18:57:50.607Z,100659.88
2023-04-26T19:00:23.779Z,100667.86
2023-04-26T19:02:56.349Z,100670.91
2023-04-26T19:05:29.850Z,100674.36
2023-04-26T19:08:02.721Z,100673.83
2023-04-26T19:10:35.986Z,100674.52
2023-04-26T19:13:09.398Z,100673.76
2023-04-26T19:15:41.926Z,100673.52
2023-04-26T19:18:14.533Z,100677.61
2023-04-26T19:20:47.430Z,100677.06
2023-04-26T19:23:20.154Z,100679.32
2023-04-26T19:25:53.119Z,100669.68
2023-04-26T19:28:25.720Z,100678.54
2023-04-26T19:30:58.218Z,100686.72
2023-04-26T19:33:31.391Z,100687.33
2023-04-26T19:36:03.815Z,100686.06
2023-04-26T19:38:36.111Z,100683.65
2023-04-26T19:41:08.709Z,100690.31
2023-04-26T19:43:41.473Z,100688.31
2023-04-26T19:46:17.162Z,100689.52
2023-04-26T19:48:49.668Z,100688.70
2023-04-26T19:51:22.540Z,100691.71
2023-04-26T19:53:55.009Z,100690.58
2023-04-26T19:56:27.478Z,100664.78
2023-04-26T19:59:00.178Z,100685.04
2023-04-26T20:01:32.381Z,100684.20
2023-04-26T20:04:04.811Z,100685.40
2023-04-26T20:06:37.512Z,100689.36
2023-04-26T20:09:10.922Z,100688.33
2023-04-26T20:11:43.781Z,100686.64
2023-04-26T20:14:16.992Z,100690.45
2023-04-26T20:16:49.540Z,100690.45
2023-04-26T20:19:22.153Z,100687.48
2023-04-26T20:21:56.097Z,100692.70
2023-04-26T20:24:29.229Z,100694.20
2023-04-26T20:27:01.993Z,100694.58
2023-04-26T20:29:34.861Z,100691.74
2023-04-26T20:32:08.026Z,100691.88
2023-04-26T20:34:40.739Z,100689.05
2023-04-26T20:37:13.806Z,100691.43
2023-04-26T20:39:47.325Z,100691.24
2023-04-26T20:42:19.848Z,100689.31
2023-04-26T20:44:53.084Z,100693.30
2023-04-26T20:47:26.271Z,100692.61
2023-04-26T20:49:58.441Z,100692.75
2023-04-26T20:52:31.216Z,100697.98
2023-04-26T20:55:04.026Z,100699.32
2023-04-26T20:57:36.535Z,100701.28
2023-04-26T21:00:11.711Z,100700.92
2023-04-26T21:02:44.787Z,100705.54
2023-04-26T21:05:17.551Z,100701.77
2023-04-26T21:07:49.984Z,100699.73
2023-04-26T21:10:22.174Z,100706.37
2023-04-26T21:12:55.385Z,100705.19
2023-04-26T21:15:28.434Z,100702.98
2023-04-26T21:18:01.120Z,100705.86
2023-04-26T21:20:33.282Z,100712.11
2023-04-26T21:23:06.002Z,100712.73
2023-04-26T21:25:38.222Z,100715.79
2023-04-26T21:28:10.738Z,100717.31
2023-04-26T21:30:43.469Z,100720.29
2023-04-26T21:33:16.822Z,100721.84
2023-04-26T21:35:49.322Z,100723.80
2023-04-26T21:38:21.786Z,100720.61
2023-04-26T21:40:53.963Z,100730.82
2023-04-26T21:43:26.635Z,100726.99
2023-04-26T21:45:59.908Z,100730.48
2023-04-26T21:48:32.329Z,100728.98
2023-04-26T21:51:05.011Z,100731.02
2023-04-26T21:53:37.367Z,100735.92
2023-04-26T21:56:10.945Z,100734.23
2023-04-26T21:58:43.592Z,100740.02
2023-04-26T22:01:17.896Z,100738.79
2023-04-26T22:03:50.382Z,100742.02
2023-04-26T22:06:22.585Z,100742.48
2023-04-26T22:08:54.879Z,100742.96
2023-04-26T22:11:28.062Z,100741.70
2023-04-26T22:14:00.548Z,100750.74
2023-04-26T22:16:33.530Z,100750.33
2023-04-26T22:19:06.713Z,100754.33
2023-04-26T22:21:39.908Z,100755.95
2023-04-26T22:24:13.134Z,100756.59
2023-04-26T22:26:45.570Z,100735.02
2023-04-26T22:29:18.196Z,100756.98
2023-04-26T22:31:50.852Z,100757.17
2023-04-26T22:34:23.317Z,100757.77
2023-04-26T22:37:01.244Z,100757.98
2023-04-26T22:39:38.889Z,100758.95
2023-04-26T22:42:11.297Z,100763.53
2023-04-26T22:44:43.732Z,100760.04
2023-04-26T22:47:18.369Z,100756.98
2023-04-26T22:49:51.209Z,100757.05
2023-04-26T22:52:31.459Z,100763.31
2023-04-26T22:55:04.668Z,100766.09
2023-04-26T22:57:37.619Z,100768.83
2023-04-26T23:00:12.630Z,100765.40
2023-04-26T23:02:45.398Z,100772.28
2023-04-26T23:05:18.404Z,100769.70
2023-04-26T23:07:51.401Z,100770.75
2023-04-26T23:10:23.757Z,100767.65
2023-04-26T23:12:56.660Z,100759.85
2023-04-26T23:15:29.189Z,100774.38
2023-04-26T23:18:02.181Z,100783.29
2023-04-26T23:20:34.964Z,100772.13
2023-04-26T23:23:07.725Z,100786.43
2023-04-26T23:25:42.360Z,100785.19
2023-04-26T23:28:14.884Z,100791.83
2023-04-26T23:30:47.185Z,100790.81
2023-04-26T23:33:19.649Z,100793.56
2023-04-26T23:35:52.439Z,100788.89
2023-04-26T23:38:25.092Z,100798.04
2023-04-26T23:40:57.826Z,100796.02
2023-04-26T23:43:30.246Z,100796.38
2023-04-26T23:46:03.312Z,100798.10
2023-04-26T23:48:36.065Z,100797.06
2023-04-26T23:51:08.916Z,100794.08
2023-04-26T23:53:41.714Z,100790.42
2023-04-26T23:56:14.323Z,100797.27
2023-04-26T23:58:46.652Z,100801.58
